createdAt,value
2023-03-29T00:02:20.028Z,2.03
2023-03-29T00:04:47.746Z,2.40
2023-03-29T00:07:15.402Z,2.10
2023-03-29T00:09:42.869Z,2.10
2023-03-29T00:12:11.608Z,2.10
2023-03-29T00:14:38.956Z,1.90
2023-03-29T00:17:06.492Z,2.30
2023-03-29T00:19:36.616Z,2.20
2023-03-29T00:22:07.875Z,2.13
2023-03-29T00:24:35.281Z,1.70
2023-03-29T00:27:02.883Z,1.60
2023-03-29T00:29:30.667Z,2.05
2023-03-29T00:31:58.419Z,2.33
2023-03-29T00:34:30.739Z,2.00
2023-03-29T00:36:58.884Z,1.98
2023-03-29T00:39:27.971Z,2.15
2023-03-29T00:41:56.121Z,1.88
2023-03-29T00:44:42.308Z,2.00
2023-03-29T00:47:10.198Z,2.08
2023-03-29T00:49:37.590Z,2.03
2023-03-29T00:52:05.062Z,2.22
2023-03-29T00:54:32.915Z,13.55
2023-03-29T00:57:04.006Z,1.90
2023-03-29T00:59:32.941Z,2.07
2023-03-29T01:02:03.112Z,1.75
2023-03-29T01:04:36.387Z,2.30
2023-03-29T01:07:08.003Z,4.28
2023-03-29T01:09:37.517Z,2.13
2023-03-29T01:12:08.721Z,2.05
2023-03-29T01:14:40.067Z,2.15
2023-03-29T01:17:07.941Z,1.80
2023-03-29T01:19:39.039Z,2.42
2023-03-29T01:22:09.535Z,2.10
2023-03-29T01:24:53.382Z,2.30
2023-03-29T01:27:39.586Z,1.60
2023-03-29T01:30:12.456Z,2.35
2023-03-29T01:32:43.103Z,2.33
2023-03-29T01:35:21.998Z,2.40
2023-03-29T01:37:52.896Z,5.65
2023-03-29T01:40:20.217Z,2.17
2023-03-29T01:42:52.875Z,1.92
2023-03-29T01:45:22.945Z,2.15
2023-03-29T01:47:55.534Z,2.20
2023-03-29T01:50:31.917Z,2.10
2023-03-29T01:52:59.203Z,2.13
2023-03-29T01:55:29.155Z,2.13
2023-03-29T01:57:57.099Z,1.90
2023-03-29T02:00:27.629Z,2.08
2023-03-29T02:03:00.173Z,2.10
2023-03-29T02:05:29.126Z,2.17
2023-03-29T02:08:00.253Z,2.33
2023-03-29T02:10:29.144Z,2.10
2023-03-29T02:12:56.572Z,2.35
2023-03-29T02:15:24.064Z,2.40
2023-03-29T02:17:51.695Z,2.05
2023-03-29T02:20:30.533Z,2.50
2023-03-29T02:23:10.439Z,1.90
2023-03-29T02:25:38.430Z,2.13
2023-03-29T02:28:06.926Z,2.35
2023-03-29T02:30:39.157Z,2.05
2023-03-29T02:33:32.821Z,1.85
2023-03-29T02:36:03.053Z,1.77
2023-03-29T02:38:31.292Z,2.25
2023-03-29T02:40:59.538Z,1.63
2023-03-29T02:43:28.288Z,1.50
2023-03-29T02:45:56.318Z,1.90
2023-03-29T02:48:25.940Z,1.90
2023-03-29T02:50:56.205Z,2.25
2023-03-29T02:53:26.675Z,2.20
2023-03-29T02:55:54.268Z,2.20
2023-03-29T02:58:28.987Z,2.30
2023-03-29T03:00:57.167Z,2.08
2023-03-29T03:03:25.352Z,2.28
2023-03-29T03:05:52.936Z,2.00
2023-03-29T03:08:20.566Z,2.20
2023-03-29T03:10:49.418Z,2.90
2023-03-29T03:13:17.257Z,2.15
2023-03-29T03:15:48.914Z,2.15
2023-03-29T03:18:16.769Z,2.35
2023-03-29T03:20:46.530Z,2.45
2023-03-29T03:23:13.980Z,2.47
2023-03-29T03:25:41.329Z,2.80
2023-03-29T03:28:09.215Z,2.20
2023-03-29T03:30:36.518Z,2.83
2023-03-29T03:33:30.356Z,2.00
2023-03-29T03:36:16.138Z,2.83
2023-03-29T03:38:45.308Z,3.17
2023-03-29T03:41:13.108Z,2.55
2023-03-29T03:43:42.381Z,2.65
2023-03-29T03:46:10.520Z,3.47
2023-03-29T03:48:38.123Z,4.70
2023-03-29T03:51:09.433Z,3.60
2023-03-29T03:53:37.097Z,3.53
2023-03-29T03:56:13.863Z,2.85
2023-03-29T03:58:59.503Z,2.88
2023-03-29T04:01:28.659Z,2.50
2023-03-29T04:04:12.769Z,8.23
2023-03-29T04:06:44.187Z,2.88
2023-03-29T04:12:26.146Z,3.47
2023-03-29T04:14:53.537Z,2.67
2023-03-29T04:17:22.325Z,2.75
2023-03-29T04:20:02.222Z,14.52
2023-03-29T04:22:33.778Z,4.10
2023-03-29T04:25:01.174Z,4.30
2023-03-29T04:27:48.270Z,3.28
2023-03-29T04:30:36.157Z,2.50
2023-03-29T04:33:13.118Z,2.30
2023-03-29T04:35:43.672Z,2.03
2023-03-29T04:38:16.976Z,2.13
2023-03-29T04:40:46.560Z,2.45
2023-03-29T04:43:26.712Z,2.28
2023-03-29T04:46:00.861Z,2.58
2023-03-29T04:48:44.610Z,2.67
2023-03-29T04:51:12.750Z,2.65
2023-03-29T04:53:41.073Z,2.80
2023-03-29T04:56:08.840Z,3.28
2023-03-29T04:58:59.306Z,3.15
2023-03-29T05:01:27.324Z,2.70
2023-03-29T05:03:58.824Z,3.15
2023-03-29T05:06:33.894Z,3.50
2023-03-29T05:09:04.908Z,3.65
2023-03-29T05:12:10.375Z,3.17
2023-03-29T05:15:08.335Z,2.72
2023-03-29T05:17:42.456Z,3.58
2023-03-29T05:20:13.744Z,2.58
2023-03-29T05:22:43.892Z,3.33
2023-03-29T05:25:27.796Z,3.58
2023-03-29T05:27:59.339Z,3.10
2023-03-29T05:30:32.577Z,3.47
2023-03-29T05:33:10.628Z,4.18
2023-03-29T05:35:41.065Z,3.47
2023-03-29T05:38:10.074Z,4.20
2023-03-29T05:40:40.486Z,3.47
2023-03-29T05:43:39.664Z,3.80
2023-03-29T05:46:09.554Z,4.80
2023-03-29T05:48:41.613Z,15.55
2023-03-29T05:51:24.342Z,3.35
2023-03-29T05:53:57.355Z,3.85
2023-03-29T05:56:24.758Z,4.05
2023-03-29T05:58:57.244Z,3.05
2023-03-29T06:01:28.549Z,3.97
2023-03-29T06:04:05.368Z,4.22
2023-03-29T06:06:41.591Z,3.92
2023-03-29T06:09:21.334Z,5.15
2023-03-29T06:11:58.933Z,4.00
2023-03-29T06:14:35.679Z,3.75
2023-03-29T06:17:16.482Z,3.25
2023-03-29T06:19:44.389Z,3.70
2023-03-29T06:22:20.145Z,4.38
2023-03-29T06:24:47.919Z,3.40
2023-03-29T06:27:24.734Z,3.85
2023-03-29T06:29:58.438Z,3.70
2023-03-29T06:32:30.961Z,3.50
2023-03-29T06:35:03.155Z,4.18
2023-03-29T06:37:34.908Z,3.80
2023-03-29T06:40:14.220Z,4.37
2023-03-29T06:42:46.054Z,3.33
2023-03-29T06:45:37.982Z,3.75
2023-03-29T06:48:11.282Z,4.65
2023-03-29T06:50:38.717Z,5.00
2023-03-29T06:53:18.290Z,3.85
2023-03-29T06:55:54.205Z,4.22
2023-03-29T06:58:46.889Z,4.20
2023-03-29T07:01:35.040Z,6.03
2023-03-29T07:04:26.392Z,4.25
2023-03-29T07:07:19.616Z,4.95
2023-03-29T07:09:54.481Z,4.22
2023-03-29T07:12:40.894Z,32.05
2023-03-29T07:15:09.574Z,6.28
2023-03-29T07:18:00.116Z,4.93
2023-03-29T07:20:28.172Z,5.20
2023-03-29T07:23:07.850Z,5.05
2023-03-29T07:25:38.556Z,5.43
2023-03-29T07:28:37.559Z,4.78
2023-03-29T07:31:10.709Z,5.10
2023-03-29T07:33:52.233Z,5.40
2023-03-29T07:36:28.402Z,5.00
2023-03-29T07:39:05.002Z,4.90
2023-03-29T07:41:36.047Z,12.77
2023-03-29T07:44:11.000Z,10.10
2023-03-29T07:46:39.221Z,14.68
2023-03-29T07:49:22.222Z,6.68
2023-03-29T07:51:55.892Z,4.95
2023-03-29T07:54:30.919Z,4.70
2023-03-29T07:57:11.159Z,4.68
2023-03-29T07:59:44.533Z,4.65
2023-03-29T08:02:29.028Z,5.15
2023-03-29T08:05:03.899Z,5.10
2023-03-29T08:07:58.247Z,4.25
2023-03-29T08:10:51.908Z,4.28
2023-03-29T08:13:49.704Z,4.77
2023-03-29T08:16:35.633Z,4.72
2023-03-29T08:19:13.314Z,5.38
2023-03-29T08:22:09.340Z,4.70
2023-03-29T08:25:05.629Z,4.95
2023-03-29T08:27:37.781Z,4.47
2023-03-29T08:30:15.993Z,5.20
2023-03-29T08:32:46.960Z,5.35
2023-03-29T08:38:21.819Z,5.50
2023-03-29T08:41:19.749Z,4.43
2023-03-29T08:43:51.996Z,4.78
2023-03-29T08:46:54.592Z,4.75
2023-03-29T08:49:41.140Z,4.05
2023-03-29T08:52:22.753Z,5.05
2023-03-29T08:54:54.111Z,5.78
2023-03-29T08:57:36.729Z,5.97
2023-03-29T09:00:44.309Z,4.00
2023-03-29T09:03:31.920Z,11.10
2023-03-29T09:06:13.605Z,4.57
2023-03-29T09:08:49.362Z,5.10
2023-03-29T09:11:16.878Z,4.55
2023-03-29T09:13:46.986Z,4.65
2023-03-29T09:16:41.678Z,4.47
2023-03-29T09:19:33.861Z,4.72
2023-03-29T09:22:31.061Z,4.57
2023-03-29T09:25:16.516Z,4.45
2023-03-29T09:27:54.350Z,4.15
2023-03-29T09:30:41.690Z,4.35
2023-03-29T09:33:38.065Z,4.68
2023-03-29T09:36:27.398Z,4.40
2023-03-29T09:39:13.029Z,5.25
2023-03-29T09:47:55.736Z,24.30
2023-03-29T09:50:44.519Z,4.50
2023-03-29T09:53:15.228Z,4.47
2023-03-29T09:56:14.257Z,4.18
2023-03-29T09:58:57.986Z,4.30
2023-03-29T10:01:37.885Z,4.45
2023-03-29T10:04:22.632Z,4.00
2023-03-29T10:07:07.577Z,4.00
2023-03-29T10:09:39.951Z,4.30
2023-03-29T10:12:23.267Z,4.45
2023-03-29T10:15:01.151Z,4.03
2023-03-29T10:17:33.316Z,3.97
2023-03-29T10:22:38.063Z,3.35
2023-03-29T10:25:18.745Z,3.67
2023-03-29T10:27:59.454Z,3.80
2023-03-29T10:30:59.071Z,4.00
2023-03-29T10:33:41.514Z,3.17
2023-03-29T10:39:27.039Z,3.42
2023-03-29T10:42:09.619Z,7.90
2023-03-29T10:44:43.734Z,3.85
2023-03-29T10:47:24.770Z,4.10
2023-03-29T10:53:00.239Z,3.83
2023-03-29T10:56:04.122Z,4.15
2023-03-29T10:58:36.211Z,3.83
2023-03-29T11:01:10.716Z,4.23
2023-03-29T11:04:14.556Z,4.28
2023-03-29T11:06:53.432Z,4.00
2023-03-29T11:09:36.260Z,4.78
2023-03-29T11:12:15.693Z,4.38
2023-03-29T11:14:52.573Z,4.15
2023-03-29T11:17:27.702Z,4.93
2023-03-29T11:20:15.965Z,4.78
2023-03-29T11:23:02.515Z,4.93
2023-03-29T11:25:42.128Z,4.43
2023-03-29T11:28:12.965Z,4.93
2023-03-29T11:30:43.391Z,5.20
2023-03-29T11:33:11.210Z,5.78
2023-03-29T11:35:38.578Z,5.43
2023-03-29T11:38:20.033Z,7.10
2023-03-29T11:40:47.542Z,4.88
2023-03-29T11:43:21.069Z,5.10
2023-03-29T11:45:54.540Z,4.60
2023-03-29T11:48:29.980Z,4.32
2023-03-29T11:51:13.871Z,4.22
2023-03-29T11:53:53.616Z,4.10
2023-03-29T11:56:26.165Z,4.70
2023-03-29T11:58:56.903Z,4.20
2023-03-29T12:01:28.934Z,4.40
2023-03-29T12:06:27.841Z,3.97
2023-03-29T12:09:01.408Z,4.45
2023-03-29T12:11:37.506Z,4.82
2023-03-29T12:14:24.042Z,4.30
2023-03-29T12:17:00.955Z,8.07
2023-03-29T12:19:32.635Z,15.50
2023-03-29T12:22:01.425Z,26.67
2023-03-29T12:24:32.962Z,18.80
2023-03-29T12:27:20.790Z,17.27
2023-03-29T12:30:07.544Z,6.60
2023-03-29T12:32:40.920Z,6.68
2023-03-29T12:35:59.010Z,5.38
2023-03-29T12:38:39.159Z,4.32
2023-03-29T12:41:27.906Z,4.80
2023-03-29T12:44:17.609Z,4.28
2023-03-29T12:46:57.593Z,4.55
2023-03-29T12:49:30.278Z,4.95
2023-03-29T12:51:59.628Z,4.57
2023-03-29T12:54:28.956Z,4.28
2023-03-29T12:57:22.564Z,4.40
2023-03-29T12:59:52.318Z,3.80
2023-03-29T13:02:19.854Z,4.43
2023-03-29T13:04:52.395Z,4.10
2023-03-29T13:07:22.907Z,4.38
2023-03-29T13:09:51.999Z,4.20
2023-03-29T13:12:19.336Z,5.25
2023-03-29T13:14:54.769Z,4.70
2023-03-29T13:17:25.967Z,5.30
2023-03-29T13:19:53.369Z,4.93
2023-03-29T13:22:20.905Z,4.80
2023-03-29T13:24:51.407Z,4.80
2023-03-29T13:27:25.294Z,4.55
2023-03-29T13:29:58.995Z,5.10
2023-03-29T13:32:27.491Z,4.05
2023-03-29T13:34:54.927Z,4.57
2023-03-29T13:37:27.994Z,5.10
2023-03-29T13:39:56.181Z,4.28
2023-03-29T13:42:36.294Z,4.50
2023-03-29T13:45:23.899Z,4.50
2023-03-29T13:50:34.452Z,10.30
2023-03-29T13:53:05.094Z,4.75
2023-03-29T13:55:36.123Z,4.47
2023-03-29T13:58:12.492Z,4.13
2023-03-29T14:00:46.227Z,4.70
2023-03-29T14:03:15.029Z,4.97
2023-03-29T14:05:45.190Z,4.95
2023-03-29T14:08:33.972Z,4.07
2023-03-29T14:11:07.069Z,5.15
2023-03-29T14:13:35.073Z,4.70
2023-03-29T14:16:04.691Z,4.68
2023-03-29T14:18:37.748Z,11.10
2023-03-29T14:21:05.259Z,4.28
2023-03-29T14:23:34.083Z,4.28
2023-03-29T14:26:07.553Z,4.38
2023-03-29T14:28:34.931Z,4.80
2023-03-29T14:31:02.316Z,4.13
2023-03-29T14:33:31.136Z,4.05
2023-03-29T14:35:59.994Z,4.90
2023-03-29T14:38:28.134Z,5.18
2023-03-29T14:40:59.381Z,4.80
2023-03-29T14:43:32.086Z,4.57
2023-03-29T14:46:01.462Z,4.85
2023-03-29T14:48:30.638Z,4.25
2023-03-29T14:50:58.052Z,4.43
2023-03-29T14:53:25.916Z,3.97
2023-03-29T14:55:53.704Z,4.80
2023-03-29T14:58:27.685Z,4.80
2023-03-29T15:00:55.178Z,4.50
2023-03-29T15:03:26.254Z,4.28
2023-03-29T15:06:02.068Z,4.25
2023-03-29T15:08:34.697Z,4.78
2023-03-29T15:11:02.967Z,4.50
2023-03-29T15:13:30.981Z,4.35
2023-03-29T15:16:00.934Z,4.70
2023-03-29T15:18:32.091Z,4.80
2023-03-29T15:20:59.871Z,4.30
2023-03-29T15:23:27.402Z,4.18
2023-03-29T15:25:58.980Z,3.80
2023-03-29T15:28:28.169Z,3.90
2023-03-29T15:31:15.076Z,4.32
2023-03-29T15:33:43.140Z,4.18
2023-03-29T15:36:11.587Z,3.83
2023-03-29T15:38:44.553Z,4.03
2023-03-29T15:41:13.682Z,4.53
2023-03-29T15:43:41.572Z,4.43
2023-03-29T15:46:09.149Z,4.88
2023-03-29T15:48:36.544Z,4.85
2023-03-29T15:51:06.447Z,4.82
2023-03-29T15:53:34.426Z,5.30
2023-03-29T15:56:04.156Z,4.95
2023-03-29T15:58:33.141Z,4.85
2023-03-29T16:01:14.678Z,4.30
2023-03-29T16:06:14.478Z,4.88
2023-03-29T16:08:42.046Z,4.50
2023-03-29T16:11:09.803Z,4.65
2023-03-29T16:13:37.780Z,5.45
2023-03-29T16:16:06.792Z,4.57
2023-03-29T16:18:35.276Z,4.97
2023-03-29T16:21:03.630Z,4.55
2023-03-29T16:23:32.850Z,5.35
2023-03-29T16:26:00.477Z,4.97
2023-03-29T16:28:28.272Z,7.25
2023-03-29T16:30:56.320Z,5.95
2023-03-29T16:33:23.708Z,5.88
2023-03-29T16:35:52.158Z,5.60
2023-03-29T16:38:21.754Z,5.35
2023-03-29T16:40:49.388Z,6.20
2023-03-29T16:43:18.733Z,5.53
2023-03-29T16:45:46.369Z,5.32
2023-03-29T16:48:14.412Z,5.60
2023-03-29T16:50:41.895Z,5.82
2023-03-29T16:53:09.348Z,5.55
2023-03-29T16:55:37.996Z,5.55
2023-03-29T16:58:06.094Z,5.53
2023-03-29T17:00:33.574Z,5.50
2023-03-29T17:03:03.993Z,5.72
2023-03-29T17:05:31.857Z,5.32
2023-03-29T17:07:59.240Z,5.53
2023-03-29T17:10:28.128Z,7.90
2023-03-29T17:12:56.035Z,6.90
2023-03-29T17:15:23.586Z,6.78
2023-03-29T17:17:50.977Z,6.53
2023-03-29T17:20:18.324Z,6.47
2023-03-29T17:22:45.861Z,4.95
2023-03-29T17:25:13.144Z,7.22
2023-03-29T17:27:40.484Z,7.53
2023-03-29T17:30:08.210Z,8.27
2023-03-29T17:32:36.395Z,8.15
2023-03-29T17:35:04.692Z,9.45
2023-03-29T17:37:32.046Z,10.98
2023-03-29T17:39:59.294Z,10.27
2023-03-29T17:42:26.851Z,9.52
2023-03-29T17:44:54.651Z,8.55
2023-03-29T17:47:21.957Z,8.13
2023-03-29T17:49:49.290Z,9.32
2023-03-29T17:52:16.545Z,8.90
2023-03-29T17:54:43.829Z,8.35
2023-03-29T17:57:11.229Z,7.68
2023-03-29T17:59:38.670Z,8.13
2023-03-29T18:02:08.381Z,8.07
2023-03-29T18:04:39.536Z,7.32
2023-03-29T18:07:07.281Z,7.47
2023-03-29T18:09:34.581Z,7.28
2023-03-29T18:12:02.011Z,6.85
2023-03-29T18:14:29.432Z,7.00
2023-03-29T18:16:57.142Z,8.15
2023-03-29T18:19:24.465Z,9.40
2023-03-29T18:21:52.171Z,10.10
2023-03-29T18:24:19.623Z,12.85
2023-03-29T18:26:47.095Z,12.32
2023-03-29T18:29:14.711Z,14.65
2023-03-29T18:31:42.902Z,16.10
2023-03-29T18:34:11.420Z,15.43
2023-03-29T18:36:39.139Z,14.70
2023-03-29T18:39:06.527Z,15.52
2023-03-29T18:41:34.757Z,14.88
2023-03-29T18:44:02.380Z,14.15
2023-03-29T18:46:33.265Z,11.75
2023-03-29T18:49:01.660Z,14.20
2023-03-29T18:51:29.282Z,14.52
2023-03-29T18:53:56.935Z,13.70
2023-03-29T18:56:24.434Z,15.18
2023-03-29T18:58:52.282Z,15.13
2023-03-29T19:01:19.964Z,15.07
2023-03-29T19:03:48.053Z,14.93
2023-03-29T19:06:15.888Z,14.32
2023-03-29T19:08:43.326Z,11.60
2023-03-29T19:11:14.200Z,10.60
2023-03-29T19:13:41.965Z,11.05
2023-03-29T19:16:09.553Z,14.13
2023-03-29T19:18:37.042Z,11.27
2023-03-29T19:21:04.929Z,11.65
2023-03-29T19:23:32.307Z,11.00
2023-03-29T19:26:00.807Z,9.80
2023-03-29T19:28:28.951Z,10.95
2023-03-29T19:31:02.168Z,10.75
2023-03-29T19:33:32.434Z,11.20
2023-03-29T19:36:00.028Z,10.38
2023-03-29T19:38:27.670Z,9.43
2023-03-29T19:40:58.552Z,10.40
2023-03-29T19:43:27.028Z,8.77
2023-03-29T19:45:58.655Z,8.70
2023-03-29T19:48:29.167Z,8.73
2023-03-29T19:51:01.292Z,9.32
2023-03-29T19:53:28.885Z,8.73
2023-03-29T19:55:58.688Z,9.48
2023-03-29T19:58:29.088Z,8.90
2023-03-29T20:00:59.609Z,8.00
2023-03-29T20:03:29.776Z,8.02
2023-03-29T20:05:57.735Z,8.70
2023-03-29T20:08:25.013Z,8.93
2023-03-29T20:11:04.687Z,9.30
2023-03-29T20:13:38.798Z,8.25
2023-03-29T20:16:07.480Z,7.03
2023-03-29T20:18:34.846Z,7.75
2023-03-29T20:21:03.093Z,7.78
2023-03-29T20:23:31.501Z,7.65
2023-03-29T20:25:59.035Z,8.65
2023-03-29T20:28:26.304Z,10.27
2023-03-29T20:30:54.101Z,10.00
2023-03-29T20:33:24.379Z,14.05
2023-03-29T20:35:51.793Z,16.10
2023-03-29T20:38:19.286Z,14.75
2023-03-29T20:40:46.549Z,14.15
2023-03-29T20:43:18.270Z,13.80
2023-03-29T20:45:53.586Z,10.82
2023-03-29T20:48:31.222Z,10.43
2023-03-29T20:50:58.568Z,9.18
2023-03-29T20:53:34.127Z,9.57
2023-03-29T20:56:01.963Z,9.95
2023-03-29T20:58:29.295Z,9.13
2023-03-29T21:00:58.713Z,9.80
2023-03-29T21:03:26.188Z,9.63
2023-03-29T21:05:58.200Z,9.68
2023-03-29T21:08:29.213Z,10.40
2023-03-29T21:10:56.667Z,10.13
2023-03-29T21:13:24.169Z,9.18
2023-03-29T21:15:52.080Z,10.85
2023-03-29T21:18:19.946Z,11.43
2023-03-29T21:20:47.404Z,9.75
2023-03-29T21:23:14.722Z,10.77
2023-03-29T21:25:43.733Z,10.13
2023-03-29T21:28:13.156Z,10.80
2023-03-29T21:30:40.577Z,9.45
2023-03-29T21:33:07.967Z,10.82
2023-03-29T21:35:35.569Z,10.75
2023-03-29T21:38:02.968Z,10.02
2023-03-29T21:40:30.400Z,11.48
2023-03-29T21:42:57.822Z,11.10
2023-03-29T21:45:25.159Z,10.80
2023-03-29T21:47:52.556Z,9.48
2023-03-29T21:50:19.930Z,10.45
2023-03-29T21:52:47.217Z,10.10
2023-03-29T21:55:14.566Z,10.68
2023-03-29T21:57:41.864Z,9.48
2023-03-29T22:00:11.183Z,10.48
2023-03-29T22:02:39.340Z,10.13
2023-03-29T22:05:06.992Z,9.55
2023-03-29T22:07:43.040Z,10.23
2023-03-29T22:10:16.918Z,10.05
2023-03-29T22:12:44.332Z,9.20
2023-03-29T22:15:12.082Z,9.52
2023-03-29T22:17:45.628Z,10.18
2023-03-29T22:20:14.444Z,9.27
2023-03-29T22:22:55.576Z,10.38
2023-03-29T22:25:24.300Z,9.95
2023-03-29T22:27:52.013Z,10.73
2023-03-29T22:30:22.859Z,9.85
2023-03-29T22:32:50.939Z,10.13
2023-03-29T22:35:19.066Z,10.32
2023-03-29T22:37:47.056Z,10.55
2023-03-29T22:40:21.832Z,9.85
2023-03-29T22:43:05.145Z,10.90
2023-03-29T22:46:38.372Z,10.88
2023-03-29T22:49:12.342Z,10.68
2023-03-29T22:51:40.529Z,10.88
2023-03-29T22:54:25.393Z,10.75
2023-03-29T22:57:23.043Z,10.80
2023-03-29T23:00:06.354Z,10.70
2023-03-29T23:02:52.103Z,9.55
2023-03-29T23:05:20.151Z,9.10
2023-03-29T23:07:50.713Z,9.85
2023-03-29T23:10:18.887Z,10.30
2023-03-29T23:12:49.063Z,9.90
2023-03-29T23:15:25.561Z,9.45
2023-03-29T23:17:56.638Z,9.52
2023-03-29T23:20:24.163Z,9.65
2023-03-29T23:22:51.492Z,10.13
2023-03-29T23:25:19.066Z,10.02
2023-03-29T23:27:46.738Z,9.90
2023-03-29T23:30:17.025Z,9.45
2023-03-29T23:32:48.322Z,8.77
2023-03-29T23:35:16.208Z,10.98
2023-03-29T23:37:52.904Z,10.30
2023-03-29T23:40:20.655Z,10.63
2023-03-29T23:42:48.864Z,10.27
2023-03-29T23:45:18.229Z,10.60
2023-03-29T23:47:46.485Z,10.63
2023-03-29T23:50:15.025Z,9.85
2023-03-29T23:52:42.457Z,10.38
2023-03-29T23:55:14.517Z,10.05
2023-03-29T23:57:42.263Z,10.02
